White Sulphur Springs, New York
Current Conditions -  °F | °C
As of 10:55 AM on Friday 28 Nov 2014 (Local Time) from KMSV Reporting Station
Broken Clouds Broken Clouds  
Wind Chill: -10°   Ceiling: 2700
Heat Index: -3°   Visibility: 10mi
Dew Point: -9°   Wind: 16mph
Humidity: 64%   Direction: 320°NW
Pressure: 30.13"   Gusts: 21mph
Location:  41.8°N, 74.83°W
Report Text: KMSV 281555Z AUTO 32014G18KT 10SM BKN027 M03/M09 A3013 RMK AO1
Loading
Personal Weather Stations






























Interactive Weather Map New forecast layout! Learn more

10-Day Weather Forecast

Advertisements
Track Severe Weather on mobile